createdAt,value
2022-10-28T00:05:00.336Z,16.30
2022-10-28T00:10:02.424Z,16.30
2022-10-28T00:15:05.246Z,16.30
2022-10-28T00:20:07.905Z,16.30
2022-10-28T00:25:10.612Z,16.40
2022-10-28T00:30:12.868Z,16.40
2022-10-28T00:35:15.041Z,16.50
2022-10-28T00:40:17.243Z,16.50
2022-10-28T00:45:19.460Z,16.60
2022-10-28T00:50:40.352Z,16.60
2022-10-28T00:55:44.397Z,16.60
2022-10-28T01:00:46.674Z,16.70
2022-10-28T01:05:50.801Z,16.70
2022-10-28T01:11:14.122Z,16.70
2022-10-28T01:16:41.154Z,16.70
2022-10-28T01:22:06.060Z,16.70
2022-10-28T01:27:26.543Z,16.80
2022-10-28T01:32:41.881Z,16.80
2022-10-28T01:37:57.969Z,16.80
2022-10-28T01:43:22.268Z,16.90
2022-10-28T01:53:41.971Z,17.00
2022-10-28T01:58:44.637Z,17.10
2022-10-28T02:03:47.571Z,17.10
2022-10-28T02:09:00.069Z,17.20
2022-10-28T02:14:05.184Z,17.40
2022-10-28T02:19:37.875Z,17.20
2022-10-28T02:25:00.989Z,17.20
2022-10-28T02:35:17.268Z,17.20
2022-10-28T02:40:24.799Z,17.30
2022-10-28T02:45:39.292Z,17.30
2022-10-28T02:50:53.552Z,17.50
2022-10-28T02:55:59.508Z,17.40
2022-10-28T03:01:01.610Z,17.40
2022-10-28T03:06:03.782Z,17.40
2022-10-28T03:11:05.966Z,17.50
2022-10-28T03:16:08.096Z,17.50
2022-10-28T03:21:10.160Z,17.50
2022-10-28T03:26:12.428Z,17.50
2022-10-28T03:31:15.497Z,17.60
2022-10-28T03:36:17.691Z,17.80
2022-10-28T03:41:20.027Z,17.60
2022-10-28T03:46:22.280Z,17.80
2022-10-28T03:51:24.425Z,17.60
2022-10-28T03:56:26.553Z,17.60
2022-10-28T04:01:28.704Z,17.80
2022-10-28T04:06:30.840Z,17.60
2022-10-28T04:11:32.918Z,17.60
2022-10-28T04:16:35.046Z,17.40
2022-10-28T04:21:37.242Z,17.60
2022-10-28T04:26:39.515Z,17.60
2022-10-28T04:31:41.655Z,17.50
2022-10-28T04:36:43.740Z,17.50
2022-10-28T04:41:46.021Z,17.50
2022-10-28T04:46:48.112Z,17.50
2022-10-28T04:51:50.373Z,17.40
2022-10-28T04:56:54.489Z,17.40
2022-10-28T05:01:56.685Z,17.30
2022-10-28T05:06:58.833Z,17.20
2022-10-28T05:12:00.919Z,17.30
2022-10-28T05:17:03.082Z,17.20
2022-10-28T05:22:05.252Z,17.30
2022-10-28T05:27:07.495Z,17.20
2022-10-28T05:32:09.529Z,17.10
2022-10-28T05:37:11.714Z,17.20
2022-10-28T05:47:16.359Z,17.10
2022-10-28T05:52:18.450Z,17.10
2022-10-28T05:57:20.509Z,16.70
2022-10-28T06:02:22.539Z,17.10
2022-10-28T06:07:24.616Z,16.80
2022-10-28T06:12:25.333Z,17.20
2022-10-28T06:17:27.548Z,17.20
2022-10-28T06:27:32.159Z,17.20
2022-10-28T06:32:34.297Z,17.30
2022-10-28T06:37:36.460Z,17.50
2022-10-28T06:42:38.581Z,17.30
2022-10-28T06:47:42.245Z,17.40
2022-10-28T06:57:52.998Z,17.40
2022-10-28T07:02:56.152Z,17.50
2022-10-28T07:07:58.568Z,17.50
2022-10-28T07:13:00.684Z,17.60
2022-10-28T07:18:02.883Z,17.60
2022-10-28T07:23:04.953Z,17.70
2022-10-28T07:28:07.097Z,17.70
2022-10-28T07:33:09.127Z,17.80
2022-10-28T07:38:11.747Z,17.80
2022-10-28T07:43:13.786Z,17.50
2022-10-28T07:53:18.383Z,17.90
2022-10-28T07:58:20.464Z,18.10
2022-10-28T08:03:31.095Z,18.20
2022-10-28T08:08:37.625Z,18.20
2022-10-28T08:13:40.438Z,18.30
2022-10-28T08:18:42.810Z,18.30
2022-10-28T08:23:46.828Z,18.30
2022-10-28T08:28:49.101Z,18.40
2022-10-28T08:33:51.200Z,18.60
2022-10-28T08:38:53.337Z,18.60
2022-10-28T08:49:14.464Z,18.70
2022-10-28T08:54:24.763Z,18.70
2022-10-28T08:59:36.106Z,18.80
2022-10-28T09:04:41.880Z,18.90
2022-10-28T09:09:45.434Z,19.00
2022-10-28T09:14:54.688Z,19.00
2022-10-28T09:20:02.118Z,19.10
2022-10-28T09:25:23.480Z,19.10
2022-10-28T09:30:56.094Z,19.20
2022-10-28T09:35:58.946Z,19.50
2022-10-28T09:41:14.676Z,19.40
2022-10-28T09:46:18.912Z,19.30
2022-10-28T09:51:27.743Z,19.50
2022-10-28T09:56:30.723Z,19.70
2022-10-28T10:01:38.245Z,19.80
2022-10-28T10:06:42.760Z,19.90
2022-10-28T10:11:47.854Z,20.10
2022-10-28T10:17:02.621Z,20.00
2022-10-28T10:22:04.855Z,20.40
2022-10-28T10:27:09.915Z,20.60
2022-10-28T10:32:22.897Z,20.80
2022-10-28T10:37:25.520Z,21.00
2022-10-28T10:42:27.927Z,21.10
2022-10-28T10:47:30.424Z,21.20
2022-10-28T10:52:32.368Z,21.40
2022-10-28T10:57:35.275Z,21.60
2022-10-28T11:02:39.749Z,21.50
2022-10-28T11:07:49.093Z,22.00
2022-10-28T11:12:57.531Z,22.30
2022-10-28T11:18:08.704Z,22.50
2022-10-28T11:23:19.719Z,22.50
2022-10-28T11:28:33.354Z,22.90
2022-10-28T11:34:09.549Z,23.10
2022-10-28T11:39:11.666Z,23.50
2022-10-28T11:44:43.259Z,23.80
2022-10-28T11:50:02.755Z,24.00
2022-10-28T11:55:30.726Z,24.40
2022-10-28T12:00:47.861Z,24.70
2022-10-28T12:06:11.500Z,25.00
2022-10-28T12:11:33.229Z,25.10
2022-10-28T12:16:54.512Z,25.60
2022-10-28T12:22:05.871Z,25.90
2022-10-28T12:27:20.638Z,26.10
2022-10-28T12:32:29.468Z,26.00
2022-10-28T12:37:48.710Z,26.30
2022-10-28T12:42:59.588Z,26.80
2022-10-28T12:48:15.378Z,26.80
2022-10-28T12:53:35.840Z,27.30
2022-10-28T12:58:58.019Z,27.50
2022-10-28T13:04:01.283Z,27.70
2022-10-28T13:09:26.388Z,27.80
2022-10-28T13:14:50.722Z,28.00
2022-10-28T13:20:41.442Z,28.10
2022-10-28T13:25:50.719Z,28.20
2022-10-28T13:30:59.440Z,28.30
2022-10-28T13:36:38.670Z,28.00
2022-10-28T13:41:44.752Z,28.60
2022-10-28T13:46:59.351Z,28.50
2022-10-28T13:52:04.446Z,28.70
2022-10-28T13:57:13.450Z,28.70
2022-10-28T14:02:35.582Z,28.70
2022-10-28T14:07:58.572Z,28.70
2022-10-28T14:13:05.511Z,28.70
2022-10-28T14:18:42.585Z,28.70
2022-10-28T14:23:45.288Z,28.60
2022-10-28T14:28:52.051Z,28.60
2022-10-28T14:33:54.135Z,28.90
2022-10-28T14:39:15.018Z,28.50
2022-10-28T14:44:41.489Z,28.40
2022-10-28T14:50:01.839Z,28.10
2022-10-28T14:55:08.122Z,28.10
2022-10-28T15:00:18.826Z,27.60
2022-10-28T15:05:29.818Z,27.50
2022-10-28T15:10:33.943Z,27.00
2022-10-28T15:15:36.010Z,27.10
2022-10-28T15:20:38.155Z,26.90
2022-10-28T15:25:40.253Z,26.60
2022-10-28T15:30:46.781Z,26.40
2022-10-28T15:35:49.218Z,26.20
2022-10-28T15:40:51.802Z,26.00
2022-10-28T15:45:54.683Z,25.80
2022-10-28T15:51:23.426Z,25.70
2022-10-28T15:56:29.700Z,25.60
2022-10-28T16:01:35.009Z,25.40
2022-10-28T16:06:37.394Z,25.30
2022-10-28T16:11:43.741Z,25.20
2022-10-28T16:16:45.995Z,24.90
2022-10-28T16:21:48.147Z,24.90
2022-10-28T16:26:50.295Z,24.80
2022-10-28T16:31:52.783Z,24.70
2022-10-28T16:36:55.068Z,24.50
2022-10-28T16:41:57.594Z,24.40
2022-10-28T16:46:59.672Z,24.20
2022-10-28T16:52:02.958Z,24.10
2022-10-28T16:57:05.023Z,24.00
2022-10-28T17:02:23.953Z,23.90
2022-10-28T17:07:27.410Z,23.80
2022-10-28T17:12:29.592Z,23.60
2022-10-28T17:17:31.709Z,23.60
2022-10-28T17:22:33.943Z,23.40
2022-10-28T17:27:36.085Z,23.40
2022-10-28T17:32:38.147Z,23.20
2022-10-28T17:37:40.280Z,23.00
2022-10-28T17:42:42.423Z,22.90
2022-10-28T17:47:44.611Z,22.80
2022-10-28T17:52:46.705Z,22.60
2022-10-28T17:57:48.769Z,22.40
2022-10-28T18:02:54.858Z,22.20
2022-10-28T18:07:57.258Z,22.00
2022-10-28T18:12:59.535Z,21.80
2022-10-28T18:18:01.668Z,21.80
2022-10-28T18:23:04.112Z,21.80
2022-10-28T18:28:06.327Z,21.60
2022-10-28T18:33:08.464Z,21.50
2022-10-28T18:38:10.569Z,21.50
2022-10-28T18:43:12.698Z,21.40
2022-10-28T18:48:14.904Z,21.20
2022-10-28T18:53:17.001Z,21.20
2022-10-28T18:58:19.121Z,21.00
2022-10-28T19:03:23.022Z,21.00
2022-10-28T19:08:25.145Z,20.90
2022-10-28T19:13:27.427Z,20.90
2022-10-28T19:18:30.381Z,20.80
2022-10-28T19:23:34.245Z,20.70
2022-10-28T19:28:41.080Z,20.60
2022-10-28T19:33:44.389Z,20.50
2022-10-28T19:38:48.354Z,20.40
2022-10-28T19:43:58.483Z,20.30
2022-10-28T19:49:05.839Z,20.20
2022-10-28T19:54:11.329Z,20.10
2022-10-28T19:59:13.787Z,20.00
2022-10-28T20:04:17.412Z,19.90
2022-10-28T20:09:19.481Z,19.80
2022-10-28T20:14:21.738Z,19.80
2022-10-28T20:19:23.923Z,19.90
2022-10-28T20:24:26.412Z,19.60
2022-10-28T20:29:28.631Z,19.60
2022-10-28T20:34:30.710Z,19.60
2022-10-28T20:39:32.798Z,19.70
2022-10-28T20:44:34.954Z,19.30
2022-10-28T20:49:39.091Z,19.40
2022-10-28T20:59:43.693Z,19.10
2022-10-28T21:04:45.917Z,19.00
2022-10-28T21:09:49.491Z,18.90
2022-10-28T21:19:54.225Z,19.00
2022-10-28T21:24:56.418Z,18.60
2022-10-28T21:29:58.580Z,18.50
2022-10-28T21:35:00.699Z,18.10
2022-10-28T21:40:02.896Z,18.30
2022-10-28T21:45:07.532Z,18.60
2022-10-28T21:50:09.723Z,18.20
2022-10-28T21:55:20.571Z,18.00
2022-10-28T22:00:33.923Z,18.00
2022-10-28T22:10:38.538Z,17.90
2022-10-28T22:15:40.652Z,17.90
2022-10-28T22:20:42.704Z,17.80
2022-10-28T22:25:44.955Z,17.70
2022-10-28T22:30:47.002Z,17.60
2022-10-28T22:35:59.494Z,17.60
2022-10-28T22:41:14.731Z,17.60
2022-10-28T22:46:17.002Z,17.40
2022-10-28T22:51:20.136Z,17.40
2022-10-28T22:56:24.198Z,17.30
2022-10-28T23:01:28.224Z,17.20
2022-10-28T23:06:30.550Z,17.20
2022-10-28T23:11:32.731Z,17.00
2022-10-28T23:16:34.832Z,17.20
2022-10-28T23:21:36.962Z,17.20
2022-10-28T23:26:39.088Z,16.90
2022-10-28T23:31:41.186Z,17.30
2022-10-28T23:36:43.298Z,17.20
2022-10-28T23:41:45.349Z,17.20
2022-10-28T23:46:47.482Z,17.10
2022-10-28T23:51:50.057Z,17.00
2022-10-28T23:56:52.283Z,16.90
